Time;durP1;ratioP1;P1;durP2;ratioP2;P2;SDS_P1;SDS_P2;PMS_P1;PMS_P2;Temp;Humidity;BMP_temperature;BMP_pressure;BME280_temperature;BME280_humidity;BME280_pressure;Samples;Min_cycle;Max_cycle;Signal;HPM_P1;HPM_P2
2023/08/21 00:01:27;;;;;;;9.93;7.65;;;19.80;99.90;;;;;;6122304;23;20180;-84
2023/08/21 00:03:55;;;;;;;12.20;7.75;;;19.90;99.90;;;;;;6121938;23;20172;-85
2023/08/21 00:06:22;;;;;;;12.50;7.97;;;19.80;99.90;;;;;;6095656;23;20167;-82
2023/08/21 00:08:50;;;;;;;11.07;7.35;;;19.80;99.90;;;;;;6122106;23;20166;-87
2023/08/21 00:11:17;;;;;;;12.30;8.07;;;19.80;99.90;;;;;;6122345;23;20782;-86
2023/08/21 00:13:47;;;;;;;10.68;8.30;;;19.80;99.90;;;;;;6121975;23;20163;-83
2023/08/21 00:16:17;;;;;;;13.10;7.43;;;19.70;99.90;;;;;;6095888;23;20171;-84
2023/08/21 00:18:45;;;;;;;10.27;7.72;;;19.80;99.90;;;;;;6121691;23;20159;-84
2023/08/21 00:21:13;;;;;;;12.65;8.07;;;19.90;99.90;;;;;;6121812;23;20265;-86
2023/08/21 00:23:40;;;;;;;9.63;7.55;;;19.80;99.90;;;;;;6121627;23;20163;-86
2023/08/21 00:26:08;;;;;;;11.20;7.55;;;19.80;99.90;;;;;;6096425;23;20163;-85
2023/08/21 00:28:35;;;;;;;14.23;8.35;;;19.80;99.90;;;;;;6121811;23;20191;-83
2023/08/21 00:31:04;;;;;;;11.55;7.53;;;19.80;99.90;;;;;;6071995;23;20167;-85
2023/08/21 00:33:32;;;;;;;14.25;8.60;;;19.70;99.90;;;;;;6121744;23;20163;-84
2023/08/21 00:36:04;;;;;;;10.13;7.82;;;19.70;99.90;;;;;;6095616;23;20171;-86
2023/08/21 00:38:32;;;;;;;11.13;7.63;;;19.70;99.90;;;;;;6121340;23;20234;-84
2023/08/21 00:40:59;;;;;;;12.48;8.30;;;19.70;99.90;;;;;;6121663;23;20615;-83
2023/08/21 00:43:27;;;;;;;12.80;8.07;;;19.90;99.90;;;;;;6095365;23;20265;-85
2023/08/21 00:45:54;;;;;;;10.15;7.38;;;19.80;99.90;;;;;;6121576;23;20174;-83
2023/08/21 00:48:22;;;;;;;11.05;8.38;;;19.70;99.90;;;;;;6096138;23;20159;-86
2023/08/21 00:50:50;;;;;;;12.38;8.77;;;19.70;99.90;;;;;;6121802;23;20183;-84
2023/08/21 00:53:18;;;;;;;12.45;8.63;;;19.80;99.90;;;;;;6121624;23;20163;-82
2023/08/21 00:55:46;;;;;;;12.55;8.27;;;19.70;99.90;;;;;;6121486;23;20230;-83
2023/08/21 00:58:16;;;;;;;12.38;8.48;;;19.50;99.90;;;;;;6095203;23;20523;-84
2023/08/21 01:00:47;;;;;;;10.27;7.93;;;19.40;99.90;;;;;;6094835;23;20167;-83
2023/08/21 01:03:15;;;;;;;12.38;7.60;;;19.50;99.90;;;;;;6095531;23;20187;-85
2023/08/21 01:05:42;;;;;;;19.58;8.80;;;19.70;99.90;;;;;;6095247;23;20170;-84
2023/08/21 01:08:35;;;;;;;12.38;8.45;;;19.80;99.90;;;;;;6121487;23;20247;-85
2023/08/21 01:11:18;;;;;;;10.75;7.32;;;19.80;99.90;;;;;;6095544;23;20167;-84
2023/08/21 01:14:13;;;;;;;14.93;8.35;;;19.80;99.90;;;;;;6095588;23;20163;-85
2023/08/21 01:16:43;;;;;;;12.88;8.98;;;19.80;99.90;;;;;;6093430;23;20835;-86
2023/08/21 01:19:25;;;;;;;16.25;9.27;;;19.70;99.90;;;;;;6094365;23;20172;-84
2023/08/21 01:21:53;;;;;;;13.20;8.65;;;19.60;99.90;;;;;;6120914;23;20182;-84
2023/08/21 01:24:21;;;;;;;11.50;8.90;;;19.60;99.90;;;;;;6095124;23;20172;-85
2023/08/21 01:26:48;;;;;;;14.63;9.57;;;19.60;99.90;;;;;;6095684;23;20210;-83
2023/08/21 01:29:16;;;;;;;12.43;8.98;;;19.60;99.90;;;;;;6120953;23;20194;-85
2023/08/21 01:31:49;;;;;;;19.17;9.57;;;19.60;99.90;;;;;;6121315;23;20174;-83
2023/08/21 01:34:17;;;;;;;12.85;9.15;;;19.60;99.90;;;;;;6121331;23;20178;-85
2023/08/21 01:36:45;;;;;;;9.93;8.13;;;19.70;99.90;;;;;;6121385;23;20218;-84
2023/08/21 01:39:13;;;;;;;15.07;9.80;;;19.70;99.90;;;;;;6121129;23;20173;-84
2023/08/21 01:41:42;;;;;;;13.75;9.30;;;19.60;99.90;;;;;;6120868;23;20191;-86
2023/08/21 01:44:09;;;;;;;14.23;9.20;;;19.60;99.90;;;;;;6094840;23;20196;-84
2023/08/21 01:46:37;;;;;;;12.15;8.75;;;19.50;99.90;;;;;;6121231;23;20172;-86
2023/08/21 01:49:04;;;;;;;13.80;9.80;;;19.50;99.90;;;;;;6095104;23;20615;-86
2023/08/21 01:51:31;;;;;;;13.52;9.23;;;19.50;99.90;;;;;;6121374;23;20187;-84
2023/08/21 01:54:01;;;;;;;15.10;9.77;;;19.50;99.90;;;;;;6121832;23;20173;-83
2023/08/21 01:56:29;;;;;;;13.93;8.95;;;19.50;99.90;;;;;;6095277;23;20227;-86
2023/08/21 01:58:57;;;;;;;11.98;8.32;;;19.50;99.90;;;;;;6095269;23;20175;-85
2023/08/21 02:01:24;;;;;;;13.15;9.10;;;19.50;99.90;;;;;;6120947;23;20242;-85
2023/08/21 02:03:52;;;;;;;13.00;9.40;;;19.60;99.90;;;;;;6071655;23;20176;-84
2023/08/21 02:06:20;;;;;;;13.32;9.15;;;19.50;99.90;;;;;;6094906;23;20194;-84
2023/08/21 02:08:48;;;;;;;15.80;9.40;;;19.50;99.90;;;;;;6094963;23;20163;-85
2023/08/21 02:11:17;;;;;;;13.57;9.38;;;19.50;99.90;;;;;;6094593;23;20175;-85
2023/08/21 02:13:44;;;;;;;12.77;8.85;;;19.40;99.90;;;;;;6121660;23;20167;-86
2023/08/21 02:16:12;;;;;;;14.60;10.00;;;19.40;99.90;;;;;;6120641;23;20183;-85
2023/08/21 02:18:41;;;;;;;15.40;9.93;;;19.40;99.90;;;;;;6120785;23;20469;-84
2023/08/21 02:21:08;;;;;;;15.95;10.23;;;19.40;99.90;;;;;;6121228;23;20219;-86
2023/08/21 02:23:35;;;;;;;15.48;10.15;;;19.40;99.90;;;;;;6094934;23;20195;-86
2023/08/21 02:26:03;;;;;;;14.90;9.45;;;19.40;99.90;;;;;;6096349;23;20174;-86
2023/08/21 02:28:31;;;;;;;18.13;10.48;;;19.50;99.90;;;;;;6096982;23;20248;-84
2023/08/21 02:30:58;;;;;;;14.50;9.68;;;19.40;99.90;;;;;;6122956;23;20242;-85
2023/08/21 02:33:26;;;;;;;12.75;7.72;;;19.40;99.90;;;;;;6123316;23;20170;-84
2023/08/21 02:35:55;;;;;;;14.60;8.98;;;19.50;99.90;;;;;;6122476;23;20809;-84
2023/08/21 02:38:23;;;;;;;16.52;9.68;;;19.60;99.90;;;;;;6122942;23;20167;-85
2023/08/21 02:40:50;;;;;;;13.90;9.77;;;19.60;99.90;;;;;;6123262;23;20187;-84
2023/08/21 02:43:18;;;;;;;14.57;10.38;;;19.40;99.90;;;;;;6122708;23;20506;-84
2023/08/21 02:45:45;;;;;;;14.27;10.02;;;19.30;99.90;;;;;;6096958;23;20167;-85
2023/08/21 02:48:13;;;;;;;15.93;9.98;;;19.30;99.90;;;;;;6096606;23;20895;-86
2023/08/21 02:50:41;;;;;;;17.70;10.80;;;19.30;99.90;;;;;;6096693;23;20259;-84
2023/08/21 02:53:09;;;;;;;14.05;8.75;;;19.30;99.90;;;;;;6097392;23;20864;-88
2023/08/21 02:55:37;;;;;;;13.25;8.02;;;19.40;99.90;;;;;;6096805;23;20167;-86
2023/08/21 02:58:04;;;;;;;15.77;10.88;;;19.50;99.90;;;;;;6096515;23;20227;-83
2023/08/21 03:00:32;;;;;;;14.68;9.77;;;19.40;99.90;;;;;;6122614;23;20174;-85
2023/08/21 03:02:59;;;;;;;16.75;10.00;;;19.40;99.90;;;;;;6122574;23;20653;-83
2023/08/21 03:05:27;;;;;;;15.88;10.35;;;19.40;99.90;;;;;;6122050;23;20163;-84
2023/08/21 03:07:54;;;;;;;14.88;9.45;;;19.30;99.90;;;;;;6097230;23;20595;-83
2023/08/21 03:10:23;;;;;;;17.05;10.20;;;19.20;99.90;;;;;;6097665;23;20180;-86
2023/08/21 03:12:50;;;;;;;12.80;8.68;;;19.30;99.90;;;;;;6099894;23;20167;-85
2023/08/21 03:15:19;;;;;;;13.48;9.10;;;19.30;99.90;;;;;;6099653;23;20754;-86
2023/08/21 03:17:47;;;;;;;15.80;9.80;;;19.40;99.90;;;;;;6099561;23;20182;-84
2023/08/21 03:20:15;;;;;;;15.13;9.60;;;19.40;99.90;;;;;;6099931;23;20708;-86
2023/08/21 03:22:44;;;;;;;13.20;9.43;;;19.40;99.90;;;;;;6096993;23;20191;-84
2023/08/21 03:25:11;;;;;;;14.93;9.20;;;19.40;99.90;;;;;;6096715;23;20167;-83
2023/08/21 03:27:39;;;;;;;14.48;10.18;;;19.30;99.90;;;;;;6124234;23;20163;-82
2023/08/21 03:30:07;;;;;;;16.88;10.50;;;19.30;99.90;;;;;;6125666;23;20164;-85
2023/08/21 03:32:37;;;;;;;18.33;10.27;;;19.30;99.90;;;;;;6099658;23;20172;-86
2023/08/21 03:35:05;;;;;;;13.02;8.90;;;19.30;99.90;;;;;;6123562;23;20167;-86
2023/08/21 03:37:35;;;;;;;14.13;9.60;;;19.40;99.90;;;;;;6095728;23;20250;-84
2023/08/21 03:40:05;;;;;;;13.88;9.02;;;19.30;99.90;;;;;;6096216;23;20175;-85
2023/08/21 03:42:33;;;;;;;13.18;9.35;;;19.30;99.90;;;;;;6095810;23;20222;-85
2023/08/21 03:45:04;;;;;;;17.42;9.98;;;19.30;99.90;;;;;;6122239;23;20211;-84
2023/08/21 03:47:32;;;;;;;15.63;9.57;;;19.30;99.90;;;;;;6095894;23;20167;-84
2023/08/21 03:50:06;;;;;;;18.40;10.23;;;19.30;99.90;;;;;;6122122;23;20202;-85
2023/08/21 03:52:35;;;;;;;14.60;9.48;;;19.30;99.90;;;;;;6096312;23;20180;-86
2023/08/21 03:55:03;;;;;;;14.32;8.98;;;19.30;99.90;;;;;;6096793;23;20195;-86
2023/08/21 03:57:31;;;;;;;15.18;9.80;;;19.40;99.90;;;;;;6096695;23;20211;-85
2023/08/21 03:59:58;;;;;;;16.13;9.85;;;19.40;99.90;;;;;;6122190;23;20167;-86
2023/08/21 04:02:26;;;;;;;14.27;9.40;;;19.40;99.90;;;;;;6096046;23;20524;-82
2023/08/21 04:04:53;;;;;;;14.88;10.20;;;19.40;99.90;;;;;;6121841;23;20218;-83
2023/08/21 04:07:22;;;;;;;16.45;10.13;;;19.40;99.90;;;;;;6122017;23;20163;-85
2023/08/21 04:09:50;;;;;;;15.95;10.13;;;19.40;99.90;;;;;;6121274;23;20160;-86
2023/08/21 04:12:17;;;;;;;14.38;9.25;;;19.40;99.90;;;;;;6095605;23;20179;-86
2023/08/21 04:14:45;;;;;;;14.43;9.43;;;19.40;99.90;;;;;;6071833;23;20171;-84
2023/08/21 04:17:13;;;;;;;15.35;9.88;;;19.60;99.90;;;;;;6094895;23;20180;-82
2023/08/21 04:19:41;;;;;;;13.80;9.57;;;19.60;99.90;;;;;;6120864;23;20164;-85
2023/08/21 04:22:08;;;;;;;14.25;10.00;;;19.50;99.90;;;;;;6095947;23;20167;-83
2023/08/21 04:24:36;;;;;;;15.38;10.23;;;19.40;99.90;;;;;;6095443;23;20187;-85
2023/08/21 04:27:03;;;;;;;16.30;10.68;;;19.30;99.90;;;;;;6095193;23;20178;-85
2023/08/21 04:29:31;;;;;;;15.10;10.25;;;19.40;99.90;;;;;;6120941;23;20159;-84
2023/08/21 04:31:58;;;;;;;16.55;9.98;;;19.40;99.90;;;;;;6095746;23;20167;-85
2023/08/21 04:34:26;;;;;;;14.75;9.38;;;19.40;99.90;;;;;;6095163;23;20191;-84
2023/08/21 04:36:53;;;;;;;17.13;10.65;;;19.50;99.90;;;;;;6094420;23;20270;-85
2023/08/21 04:39:22;;;;;;;15.85;11.20;;;19.50;99.90;;;;;;6095433;23;20661;-82
2023/08/21 04:41:49;;;;;;;18.05;10.35;;;19.50;99.90;;;;;;6095470;23;20186;-83
2023/08/21 04:44:18;;;;;;;16.58;11.10;;;19.50;99.90;;;;;;6095472;23;20201;-85
2023/08/21 04:46:50;;;;;;;18.38;10.95;;;19.50;99.90;;;;;;6095410;23;20166;-86
2023/08/21 04:49:18;;;;;;;14.32;9.75;;;19.40;99.90;;;;;;6094958;23;20234;-84
2023/08/21 04:51:45;;;;;;;18.02;10.50;;;19.50;99.90;;;;;;6095362;23;20172;-86
2023/08/21 04:54:13;;;;;;;14.55;9.23;;;19.50;99.90;;;;;;6095119;23;20216;-86
2023/08/21 04:56:40;;;;;;;13.30;8.57;;;19.60;99.90;;;;;;6094369;23;20202;-82
2023/08/21 04:59:10;;;;;;;18.02;10.95;;;19.60;99.90;;;;;;6072153;23;20622;-85
2023/08/21 05:01:37;;;;;;;12.60;9.15;;;19.70;99.90;;;;;;6095155;23;20175;-83
2023/08/21 05:04:06;;;;;;;12.85;7.95;;;19.70;99.90;;;;;;6094820;23;20709;-84
2023/08/21 05:06:34;;;;;;;13.43;8.90;;;19.70;99.90;;;;;;6095382;23;20166;-87
2023/08/21 05:09:02;;;;;;;15.38;9.85;;;19.70;99.90;;;;;;6093850;23;20661;-86
2023/08/21 05:11:29;;;;;;;15.40;10.20;;;19.70;99.90;;;;;;6094627;23;20256;-84
2023/08/21 05:13:57;;;;;;;13.85;10.15;;;19.70;99.90;;;;;;6120683;23;20199;-86
2023/08/21 05:16:29;;;;;;;14.55;10.10;;;19.50;99.90;;;;;;6095048;23;20178;-86
2023/08/21 05:18:56;;;;;;;11.98;8.73;;;19.50;99.90;;;;;;6096749;23;20226;-80
2023/08/21 05:21:24;;;;;;;13.45;9.45;;;19.50;99.90;;;;;;6107199;23;20175;-79
2023/08/21 05:23:51;;;;;;;13.20;9.23;;;19.60;99.90;;;;;;6107543;23;20190;-78
2023/08/21 05:26:19;;;;;;;14.95;10.18;;;19.70;99.90;;;;;;6084467;23;20172;-80
2023/08/21 05:28:47;;;;;;;11.35;8.20;;;19.70;99.90;;;;;;6134389;23;20159;-79
2023/08/21 05:31:15;;;;;;;11.68;8.85;;;19.80;99.90;;;;;;6084794;23;20189;-79
2023/08/21 05:33:54;;;;;;;12.05;8.85;;;19.80;99.90;;;;;;6107547;23;20168;-78
2023/08/21 05:36:22;;;;;;;11.38;8.93;;;19.80;99.90;;;;;;6108712;23;20170;-79
2023/08/21 05:38:51;;;;;;;13.88;9.50;;;19.80;99.90;;;;;;6108991;23;20171;-79
2023/08/21 05:41:18;;;;;;;12.85;9.18;;;19.90;99.90;;;;;;6108624;23;20172;-79
2023/08/21 05:43:47;;;;;;;12.88;9.35;;;19.80;99.90;;;;;;6108013;23;20195;-78
2023/08/21 05:46:15;;;;;;;12.23;9.13;;;19.80;99.90;;;;;;6134460;23;20785;-80
2023/08/21 05:48:43;;;;;;;12.90;9.13;;;19.70;99.90;;;;;;6134681;23;20242;-79
2023/08/21 05:51:10;;;;;;;11.90;8.98;;;19.80;99.90;;;;;;6108362;23;20172;-79
2023/08/21 05:53:38;;;;;;;12.18;9.38;;;19.70;99.90;;;;;;6107890;23;20175;-79
2023/08/21 05:56:05;;;;;;;11.38;8.90;;;19.80;99.90;;;;;;6108346;23;20230;-78
2023/08/21 05:58:34;;;;;;;12.88;8.80;;;19.80;99.90;;;;;;6108343;23;20179;-79
2023/08/21 06:01:03;;;;;;;12.07;8.05;;;19.90;99.90;;;;;;6109758;23;20496;-78
2023/08/21 06:03:33;;;;;;;10.45;8.43;;;19.90;99.90;;;;;;6110037;23;20211;-79
2023/08/21 06:06:13;;;;;;;12.90;7.63;;;19.90;99.90;;;;;;6110397;23;20170;-79
2023/08/21 06:08:41;;;;;;;10.80;8.13;;;19.90;99.90;;;;;;6110259;23;20167;-78
2023/08/21 06:11:09;;;;;;;10.02;8.05;;;19.90;99.90;;;;;;6085903;23;20171;-80
2023/08/21 06:13:37;;;;;;;9.13;7.40;;;19.90;99.90;;;;;;6086717;23;20191;-79
2023/08/21 06:16:05;;;;;;;9.48;7.53;;;19.90;99.90;;;;;;6109721;23;20539;-79
2023/08/21 06:18:35;;;;;;;11.60;7.97;;;19.90;99.90;;;;;;6086898;23;20171;-79
2023/08/21 06:21:03;;;;;;;9.02;7.57;;;19.90;99.90;;;;;;6109687;23;20668;-79
2023/08/21 06:23:30;;;;;;;11.10;7.68;;;19.90;99.90;;;;;;6110148;23;20254;-79
2023/08/21 06:25:58;;;;;;;10.07;7.43;;;19.90;99.90;;;;;;6110275;23;20225;-79
2023/08/21 06:28:25;;;;;;;11.65;7.75;;;19.90;99.90;;;;;;6109801;23;20252;-78
2023/08/21 06:30:58;;;;;;;8.55;6.60;;;19.90;99.90;;;;;;6136475;23;20223;-78
2023/08/21 06:33:26;;;;;;;10.65;7.25;;;19.90;99.90;;;;;;6108652;23;20175;-82
2023/08/21 06:35:54;;;;;;;12.55;7.00;;;19.90;99.90;;;;;;6110184;23;20183;-78
2023/08/21 06:38:22;;;;;;;8.90;7.20;;;19.90;99.90;;;;;;6136050;23;20168;-82
2023/08/21 06:40:50;;;;;;;10.52;7.72;;;19.80;99.90;;;;;;6136566;23;20191;-78
2023/08/21 06:43:19;;;;;;;10.23;7.00;;;19.80;99.90;;;;;;6136470;23;20578;-78
2023/08/21 06:45:49;;;;;;;10.70;7.25;;;19.80;99.90;;;;;;6110295;23;20611;-79
2023/08/21 06:48:18;;;;;;;9.63;6.93;;;19.80;99.90;;;;;;6086343;23;20556;-79
2023/08/21 06:50:46;;;;;;;8.93;7.15;;;19.90;99.90;;;;;;6110192;23;20190;-86
2023/08/21 06:53:13;;;;;;;8.27;6.88;;;19.90;99.90;;;;;;6135907;23;20163;-79
2023/08/21 06:55:41;;;;;;;9.45;7.35;;;19.90;99.90;;;;;;6110465;23;20167;-78
2023/08/21 06:58:08;;;;;;;10.20;7.22;;;19.90;99.90;;;;;;6112540;23;20225;-78
2023/08/21 07:00:38;;;;;;;9.40;7.03;;;19.90;99.90;;;;;;6111144;23;20231;-78
2023/08/21 07:03:07;;;;;;;8.63;7.07;;;19.90;99.90;;;;;;6136628;23;20207;-81
2023/08/21 07:05:35;;;;;;;8.60;7.00;;;20.00;99.90;;;;;;6137656;23;20215;-78
2023/08/21 07:08:03;;;;;;;7.70;6.40;;;20.10;99.90;;;;;;6137709;23;20234;-79
2023/08/21 07:10:35;;;;;;;7.82;6.40;;;20.10;99.90;;;;;;6137104;23;20159;-78
2023/08/21 07:13:03;;;;;;;7.88;6.38;;;20.10;99.90;;;;;;6136732;23;20154;-79
2023/08/21 07:15:31;;;;;;;8.23;6.85;;;20.10;99.90;;;;;;6111164;23;20159;-78
2023/08/21 07:17:58;;;;;;;7.55;6.10;;;20.10;99.90;;;;;;6136659;23;20174;-78
2023/08/21 07:20:26;;;;;;;8.30;6.38;;;20.00;99.90;;;;;;6086446;23;20174;-78
2023/08/21 07:22:53;;;;;;;8.90;6.82;;;20.10;99.90;;;;;;6136687;23;20175;-79
2023/08/21 07:25:21;;;;;;;8.52;6.63;;;20.10;99.90;;;;;;6111378;23;20155;-80
2023/08/21 07:27:50;;;;;;;9.32;6.80;;;20.30;99.90;;;;;;6137067;23;20170;-79
2023/08/21 07:30:17;;;;;;;7.43;5.88;;;20.20;99.90;;;;;;6136985;23;20170;-78
2023/08/21 07:32:46;;;;;;;9.35;6.75;;;20.30;99.90;;;;;;6137061;23;20915;-79
2023/08/21 07:35:13;;;;;;;7.82;6.40;;;20.30;99.90;;;;;;6137505;23;20160;-79
2023/08/21 07:37:44;;;;;;;6.65;5.97;;;20.30;99.90;;;;;;6136933;23;20243;-78
2023/08/21 07:40:12;;;;;;;8.32;6.38;;;20.20;99.90;;;;;;6136654;23;20218;-79
2023/08/21 07:42:39;;;;;;;8.02;6.10;;;20.20;99.90;;;;;;6136587;23;20156;-78
2023/08/21 07:45:08;;;;;;;8.23;6.55;;;20.20;99.90;;;;;;6110373;23;20800;-78
2023/08/21 07:47:35;;;;;;;7.47;5.63;;;20.20;99.90;;;;;;6133267;23;20191;-78
2023/08/21 07:50:05;;;;;;;11.88;6.82;;;20.20;99.90;;;;;;6128627;23;20167;-87
2023/08/21 07:52:35;;;;;;;7.80;6.47;;;20.40;99.90;;;;;;6097338;23;20167;-88
2023/08/21 07:55:03;;;;;;;7.78;6.63;;;20.50;99.90;;;;;;6073699;23;20178;-86
2023/08/21 07:57:31;;;;;;;10.30;6.97;;;20.50;99.90;;;;;;6097244;23;20229;-86
2023/08/21 07:59:58;;;;;;;10.23;7.22;;;20.40;99.90;;;;;;6097590;23;20595;-87
2023/08/21 08:02:26;;;;;;;10.43;7.07;;;20.50;99.90;;;;;;6122366;23;20171;-86
2023/08/21 08:04:54;;;;;;;9.20;7.55;;;20.50;99.90;;;;;;6096462;23;20226;-87
2023/08/21 08:07:22;;;;;;;8.90;7.78;;;20.50;99.90;;;;;;6123054;23;20159;-86
2023/08/21 08:09:51;;;;;;;10.68;7.43;;;20.50;99.90;;;;;;6072157;23;20234;-87
2023/08/21 08:12:18;;;;;;;11.43;8.02;;;20.50;99.90;;;;;;6096782;23;20183;-87
2023/08/21 08:14:46;;;;;;;8.45;7.18;;;20.60;99.90;;;;;;6123230;23;20163;-87
2023/08/21 08:17:14;;;;;;;9.20;7.88;;;20.70;99.90;;;;;;6122705;23;20167;-87
2023/08/21 08:19:41;;;;;;;8.75;7.18;;;20.70;99.90;;;;;;6073148;23;20182;-88
2023/08/21 08:22:09;;;;;;;10.48;7.75;;;20.80;99.90;;;;;;6123399;23;20247;-88
2023/08/21 08:24:36;;;;;;;10.85;8.73;;;20.80;99.90;;;;;;6123732;23;20187;-87
2023/08/21 08:27:04;;;;;;;10.77;8.60;;;20.70;99.90;;;;;;6096912;23;20187;-86
2023/08/21 08:29:31;;;;;;;13.63;8.85;;;20.70;99.90;;;;;;6122566;23;20234;-87
2023/08/21 08:31:59;;;;;;;12.70;9.40;;;20.70;99.90;;;;;;6122506;23;20164;-88
2023/08/21 08:34:26;;;;;;;10.23;8.98;;;20.70;99.90;;;;;;6122561;23;20167;-87
2023/08/21 08:36:54;;;;;;;12.48;9.73;;;20.60;99.90;;;;;;6096833;23;20167;-87
2023/08/21 08:39:22;;;;;;;14.68;10.98;;;20.50;99.90;;;;;;6122710;23;20163;-88
2023/08/21 08:42:03;;;;;;;15.63;10.95;;;20.40;99.90;;;;;;6097130;23;20182;-87
2023/08/21 08:44:35;;;;;;;16.45;11.75;;;20.30;99.90;;;;;;6097895;23;20175;-88
2023/08/21 08:47:05;;;;;;;15.10;11.50;;;20.20;99.90;;;;;;6095750;23;20219;-88
2023/08/21 08:49:32;;;;;;;14.02;11.50;;;20.20;99.90;;;;;;6123714;23;20230;-84
2023/08/21 08:52:01;;;;;;;14.00;10.82;;;20.30;99.90;;;;;;6096531;23;20214;-86
2023/08/21 08:54:30;;;;;;;17.67;12.05;;;20.20;99.90;;;;;;6122306;23;20227;-86
2023/08/21 08:56:58;;;;;;;14.68;11.18;;;20.30;99.90;;;;;;6095988;23;20211;-87
2023/08/21 08:59:25;;;;;;;15.50;11.75;;;20.40;99.90;;;;;;6120823;23;20230;-84
2023/08/21 09:01:54;;;;;;;16.10;11.18;;;20.40;99.90;;;;;;6122641;23;20168;-86
2023/08/21 09:04:21;;;;;;;15.00;10.48;;;20.40;99.90;;;;;;6095430;23;20238;-84
2023/08/21 09:06:49;;;;;;;16.85;11.10;;;20.50;99.90;;;;;;6096620;23;20171;-84
2023/08/21 09:09:16;;;;;;;13.77;10.52;;;20.50;99.90;;;;;;6121682;23;20170;-84
2023/08/21 09:11:47;;;;;;;13.60;9.90;;;20.40;99.90;;;;;;6122136;23;20163;-84
2023/08/21 09:14:15;;;;;;;14.90;10.90;;;20.50;99.90;;;;;;6121696;23;20220;-87
2023/08/21 09:17:03;;;;;;;14.00;10.70;;;20.50;99.90;;;;;;6072156;23;20182;-86
2023/08/21 09:19:31;;;;;;;13.00;10.77;;;20.60;99.90;;;;;;6122467;23;20156;-86
2023/08/21 09:22:07;;;;;;;14.35;10.52;;;20.60;99.90;;;;;;6097271;23;20610;-87
2023/08/21 09:24:34;;;;;;;13.80;10.35;;;20.60;99.90;;;;;;6071881;23;20183;-86
2023/08/21 09:27:03;;;;;;;14.73;10.77;;;20.60;99.90;;;;;;6122290;23;20166;-87
2023/08/21 09:29:40;;;;;;;17.17;12.57;;;20.50;99.90;;;;;;6096117;23;20234;-86
2023/08/21 09:32:08;;;;;;;14.85;12.07;;;20.50;99.90;;;;;;6096333;23;20151;-86
2023/08/21 09:34:37;;;;;;;15.35;12.40;;;20.40;99.90;;;;;;6121578;23;20168;-86
2023/08/21 09:37:09;;;;;;;18.60;12.27;;;20.30;99.90;;;;;;6122266;23;20230;-86
2023/08/21 09:39:37;;;;;;;18.05;12.13;;;20.30;99.90;;;;;;6072780;23;20171;-87
2023/08/21 09:42:08;;;;;;;17.98;11.77;;;20.40;99.90;;;;;;6096509;23;20267;-84
2023/08/21 09:44:42;;;;;;;17.30;12.32;;;20.50;99.90;;;;;;6121557;23;20574;-88
2023/08/21 09:47:12;;;;;;;15.88;11.30;;;20.50;99.90;;;;;;6121770;23;20152;-86
2023/08/21 09:49:42;;;;;;;16.95;12.07;;;20.50;99.90;;;;;;6095955;23;20156;-85
2023/08/21 09:52:11;;;;;;;15.70;11.73;;;20.40;99.90;;;;;;6121953;23;20222;-87
2023/08/21 09:54:41;;;;;;;14.75;11.10;;;20.50;99.90;;;;;;6121903;23;20163;-86
2023/08/21 09:57:09;;;;;;;17.02;11.80;;;20.50;99.90;;;;;;6121480;23;20191;-87
2023/08/21 09:59:40;;;;;;;16.98;11.82;;;20.50;99.90;;;;;;6096268;23;20163;-86
2023/08/21 10:02:09;;;;;;;16.05;11.68;;;20.50;99.90;;;;;;6122778;23;20583;-87
2023/08/21 10:04:40;;;;;;;15.43;10.73;;;20.60;99.90;;;;;;6121784;23;20567;-87
2023/08/21 10:07:08;;;;;;;16.90;11.90;;;20.60;99.90;;;;;;6121711;23;20226;-88
2023/08/21 10:09:37;;;;;;;16.77;12.15;;;20.70;99.90;;;;;;6122236;23;20163;-87
2023/08/21 10:12:06;;;;;;;16.67;11.35;;;20.70;99.90;;;;;;6121786;23;20715;-86
2023/08/21 10:14:34;;;;;;;15.90;11.88;;;20.80;99.90;;;;;;6121948;23;20190;-85
2023/08/21 10:17:02;;;;;;;14.95;11.23;;;20.80;99.90;;;;;;6072869;23;20167;-88
2023/08/21 10:19:32;;;;;;;15.40;11.63;;;20.80;99.90;;;;;;6095574;23;20168;-85
2023/08/21 10:22:03;;;;;;;14.65;11.80;;;20.70;99.90;;;;;;6095734;23;20175;-86
2023/08/21 10:24:38;;;;;;;19.73;11.48;;;20.60;99.90;;;;;;6095607;23;20195;-85
2023/08/21 10:27:11;;;;;;;15.07;11.77;;;20.60;99.90;;;;;;6096443;23;20156;-88
2023/08/21 10:29:39;;;;;;;20.02;12.50;;;20.70;99.90;;;;;;6095949;23;20171;-88
2023/08/21 10:32:07;;;;;;;19.65;13.38;;;20.70;99.90;;;;;;6121798;23;20164;-86
2023/08/21 10:34:38;;;;;;;17.48;12.63;;;20.70;99.90;;;;;;6095901;23;20178;-87
2023/08/21 10:37:12;;;;;;;16.40;11.63;;;20.60;99.90;;;;;;6072512;23;20522;-87
2023/08/21 10:39:56;;;;;;;16.13;12.65;;;20.60;99.90;;;;;;6096398;23;20151;-86
2023/08/21 10:42:40;;;;;;;16.33;12.70;;;20.70;99.90;;;;;;6121798;23;20162;-86
2023/08/21 10:45:12;;;;;;;16.92;13.32;;;20.80;99.90;;;;;;6095542;23;20278;-88
2023/08/21 10:47:40;;;;;;;17.02;11.40;;;20.80;99.90;;;;;;6122979;23;20167;-86
2023/08/21 10:50:09;;;;;;;17.05;12.48;;;20.80;99.90;;;;;;6097432;23;20546;-86
2023/08/21 10:52:44;;;;;;;18.75;13.50;;;20.80;99.90;;;;;;6123322;23;20164;-87
2023/08/21 10:55:18;;;;;;;16.80;12.45;;;20.80;99.90;;;;;;6123074;23;20222;-87
2023/08/21 10:57:49;;;;;;;16.25;12.50;;;20.80;99.90;;;;;;6073220;23;20919;-83
2023/08/21 11:00:20;;;;;;;18.88;12.80;;;20.80;99.90;;;;;;6097616;23;20178;-87
2023/08/21 11:02:50;;;;;;;19.05;13.07;;;20.80;99.90;;;;;;6124748;23;20158;-86
2023/08/21 11:05:18;;;;;;;16.65;12.90;;;20.80;99.90;;;;;;6098001;23;20596;-86
2023/08/21 11:07:47;;;;;;;18.25;13.40;;;20.90;99.90;;;;;;6072914;23;20187;-86
2023/08/21 11:10:22;;;;;;;16.15;12.63;;;21.20;99.90;;;;;;6097816;23;20631;-87
2023/08/21 11:13:02;;;;;;;15.90;12.70;;;21.30;99.90;;;;;;6073822;23;20246;-86
2023/08/21 11:15:30;;;;;;;18.25;12.82;;;21.40;99.90;;;;;;6123150;23;20230;-86
2023/08/21 11:18:02;;;;;;;19.58;13.80;;;21.40;99.90;;;;;;6097574;23;20163;-87
2023/08/21 11:20:34;;;;;;;15.82;12.30;;;21.30;99.90;;;;;;6123389;23;20484;-88
2023/08/21 11:23:07;;;;;;;19.77;14.32;;;21.20;99.90;;;;;;6097024;23;20167;-86
2023/08/21 11:25:39;;;;;;;17.70;13.77;;;21.10;99.90;;;;;;6097196;23;20536;-86
2023/08/21 11:28:08;;;;;;;18.95;13.43;;;21.10;99.90;;;;;;6096640;23;20570;-86
2023/08/21 11:30:36;;;;;;;16.58;13.15;;;21.20;99.90;;;;;;6097562;23;20168;-87
2023/08/21 11:33:07;;;;;;;17.55;13.73;;;21.30;99.90;;;;;;6096860;23;20174;-87
2023/08/21 11:35:36;;;;;;;20.67;13.02;;;21.50;99.90;;;;;;6123438;23;20164;-88
2023/08/21 11:38:04;;;;;;;18.05;13.63;;;21.60;99.90;;;;;;6098094;23;20195;-86
2023/08/21 11:40:36;;;;;;;19.08;12.88;;;21.70;99.90;;;;;;6097218;23;20206;-86
2023/08/21 11:43:05;;;;;;;18.15;13.25;;;21.60;99.90;;;;;;6123310;23;20174;-86
2023/08/21 11:45:33;;;;;;;17.25;13.43;;;21.80;99.90;;;;;;6096929;23;20246;-86
2023/08/21 11:48:18;;;;;;;14.63;11.57;;;22.20;99.90;;;;;;6122983;23;20226;-86
2023/08/21 11:50:48;;;;;;;15.13;11.02;;;22.20;99.90;;;;;;6096845;23;20160;-84
2023/08/21 11:53:15;;;;;;;14.30;11.00;;;22.10;99.90;;;;;;6096833;23;20509;-87
2023/08/21 11:55:43;;;;;;;15.18;10.68;;;21.90;99.90;;;;;;6122847;23;20168;-87
2023/08/21 11:58:10;;;;;;;15.02;10.68;;;21.90;99.90;;;;;;6122771;23;20201;-85
2023/08/21 12:00:40;;;;;;;13.05;9.43;;;21.70;99.90;;;;;;6122710;23;20167;-85
2023/08/21 12:03:09;;;;;;;11.02;9.15;;;21.80;99.90;;;;;;6096825;23;20182;-86
2023/08/21 12:05:43;;;;;;;11.57;8.88;;;21.80;99.90;;;;;;6122812;23;20194;-87
2023/08/21 12:08:12;;;;;;;16.55;10.82;;;21.90;99.90;;;;;;6123295;23;20155;-85
2023/08/21 12:10:41;;;;;;;13.18;9.82;;;22.20;99.90;;;;;;6096935;23;20174;-87
2023/08/21 12:13:08;;;;;;;13.07;10.07;;;22.40;99.90;;;;;;6096349;23;20171;-88
2023/08/21 12:15:36;;;;;;;15.90;9.77;;;22.60;99.90;;;;;;6097141;23;20166;-85
2023/08/21 12:18:04;;;;;;;13.70;9.18;;;22.60;99.90;;;;;;6096445;23;20171;-86
2023/08/21 12:20:32;;;;;;;11.75;9.18;;;22.70;99.90;;;;;;6096389;23;20226;-86
2023/08/21 12:23:00;;;;;;;10.75;8.70;;;22.80;99.90;;;;;;6096189;23;20198;-86
2023/08/21 12:25:27;;;;;;;11.63;9.13;;;23.00;99.90;;;;;;6072522;23;20847;-88
2023/08/21 12:27:55;;;;;;;13.45;9.32;;;23.00;99.90;;;;;;6123998;23;20186;-86
2023/08/21 12:30:35;;;;;;;13.57;9.57;;;23.10;99.90;;;;;;6096386;23;20190;-87
2023/08/21 12:33:03;;;;;;;20.33;9.77;;;23.10;99.90;;;;;;6096714;23;20239;-86
2023/08/21 12:35:48;;;;;;;10.88;8.60;;;23.00;99.90;;;;;;6096298;23;20178;-86
2023/08/21 12:38:15;;;;;;;12.48;7.97;;;23.20;99.90;;;;;;6096890;23;20190;-87
2023/08/21 12:40:44;;;;;;;13.23;8.88;;;23.50;99.90;;;;;;6096261;23;20702;-86
2023/08/21 12:43:12;;;;;;;10.93;8.63;;;23.60;99.90;;;;;;6096381;23;20177;-85
2023/08/21 12:45:39;;;;;;;9.93;8.27;;;23.60;99.90;;;;;;6122338;23;20218;-86